Terminal Aerodrome Forecast
Issued by NWS Twin Cities, MN

Home | Current Version | Previous Version | Graphics & Text | Print | Product List | Glossary On
Versions: 1 2 3 4 5 6 7 8 9 10 11 12 13 14 15 16 17 18 19 20 21 22 23 24 25
076
FTUS43 KMPX 211139
TAFMSP
TAF
KMSP 211139Z 2112/2218 VRB02KT P6SM OVC100
      TEMPO 2112/2114 5SM BR SCT005
     FM212000 02006KT P6SM OVC050
     FM220000 03006KT P6SM OVC035
     FM220600 03010KT P6SM OVC020
     FM221000 03014G20KT 4SM -SN OVC015
     FM221200 03016G24KT 2SM -SN OVC010=

USA.gov is the U.S. government's official web portal to all federal, state and local government web resources and services.